createdAt,value
2018-01-02T00:00:00.423Z,0.80
2018-01-02T00:02:29.045Z,0.90
2018-01-02T00:04:57.377Z,0.70
2018-01-02T00:07:25.752Z,0.90
2018-01-02T00:09:54.055Z,0.50
2018-01-02T00:12:22.415Z,0.70
2018-01-02T00:14:50.727Z,0.70
2018-01-02T00:17:19.030Z,0.70
2018-01-02T00:19:47.321Z,1.20
2018-01-02T00:22:15.662Z,1.03
2018-01-02T00:24:44.016Z,0.67
2018-01-02T00:27:12.380Z,0.70
2018-01-02T00:29:40.694Z,0.60
2018-01-02T00:32:09.020Z,0.67
2018-01-02T00:34:37.311Z,0.60
2018-01-02T00:37:05.839Z,0.60
2018-01-02T00:39:34.183Z,0.60
2018-01-02T00:42:02.463Z,0.50
2018-01-02T00:44:30.749Z,0.60
2018-01-02T00:46:59.066Z,0.50
2018-01-02T00:49:27.374Z,0.60
2018-01-02T00:51:55.677Z,0.60
2018-01-02T00:54:23.987Z,0.50
2018-01-02T00:56:52.299Z,0.80
2018-01-02T00:59:20.836Z,0.70
2018-01-02T01:01:49.173Z,0.73
2018-01-02T01:04:17.450Z,0.60
2018-01-02T01:06:45.791Z,0.93
2018-01-02T01:09:14.313Z,0.50
2018-01-02T01:11:42.792Z,0.87
2018-01-02T01:14:11.219Z,0.60
2018-01-02T01:16:39.506Z,0.90
2018-01-02T01:19:08.045Z,0.67
2018-01-02T01:21:36.416Z,0.53
2018-01-02T01:24:04.738Z,0.60
2018-01-02T01:26:33.031Z,0.50
2018-01-02T01:29:01.343Z,0.50
2018-01-02T01:31:29.619Z,0.70
2018-01-02T01:33:58.019Z,0.50
2018-01-02T01:36:26.495Z,0.50
2018-01-02T01:38:54.862Z,0.43
2018-01-02T01:41:23.409Z,0.30
2018-01-02T01:43:51.839Z,0.50
2018-01-02T01:46:20.387Z,0.50
2018-01-02T01:48:55.829Z,0.30
2018-01-02T01:51:24.134Z,0.50
2018-01-02T01:53:52.735Z,0.43
2018-01-02T01:56:21.093Z,0.63
2018-01-02T01:58:49.379Z,0.60
2018-01-02T02:01:17.695Z,0.40
2018-01-02T02:03:46.131Z,0.50
2018-01-02T02:06:14.487Z,0.47
2018-01-02T02:08:43.176Z,0.60
2018-01-02T02:11:11.970Z,0.60
2018-01-02T02:13:40.454Z,0.47
2018-01-02T02:16:08.802Z,0.57
2018-01-02T02:18:37.109Z,0.47
2018-01-02T02:21:05.555Z,0.40
2018-01-02T02:23:33.906Z,0.80
2018-01-02T02:26:02.259Z,0.60
2018-01-02T02:28:34.549Z,0.60
2018-01-02T02:31:02.911Z,0.70
2018-01-02T02:33:31.278Z,0.50
2018-01-02T02:35:59.666Z,0.50
2018-01-02T02:38:27.951Z,0.70
2018-01-02T02:41:08.010Z,0.70
2018-01-02T02:43:36.380Z,0.60
2018-01-02T02:46:04.800Z,0.50
2018-01-02T02:48:33.193Z,0.60
2018-01-02T02:51:01.487Z,0.60
2018-01-02T02:53:29.873Z,0.70
2018-01-02T02:56:02.561Z,0.93
2018-01-02T02:58:30.914Z,0.50
2018-01-02T03:00:59.359Z,0.53
2018-01-02T03:03:27.830Z,0.80
2018-01-02T03:05:56.197Z,0.50
2018-01-02T03:08:24.567Z,0.80
2018-01-02T03:10:52.995Z,0.73
2018-01-02T03:13:21.363Z,0.70
2018-01-02T03:15:49.856Z,0.50
2018-01-02T03:18:18.317Z,0.97
2018-01-02T03:20:46.800Z,0.90
2018-01-02T03:23:15.135Z,0.60
2018-01-02T03:25:43.473Z,0.90
2018-01-02T03:28:11.987Z,1.53
2018-01-02T03:30:40.331Z,0.77
2018-01-02T03:33:08.768Z,1.13
2018-01-02T03:35:37.243Z,1.50
2018-01-02T03:38:05.561Z,1.20
2018-01-02T03:40:33.964Z,0.90
2018-01-02T03:43:02.306Z,0.93
2018-01-02T03:45:30.606Z,0.90
2018-01-02T03:47:58.915Z,0.83
2018-01-02T03:50:27.222Z,0.80
2018-01-02T03:52:56.107Z,1.00
2018-01-02T03:55:24.467Z,1.20
2018-01-02T03:57:52.774Z,0.70
2018-01-02T04:00:21.099Z,1.20
2018-01-02T04:02:49.540Z,0.80
2018-01-02T04:05:18.014Z,1.07
2018-01-02T04:07:46.482Z,0.90
2018-01-02T04:10:14.820Z,1.07
2018-01-02T04:12:43.414Z,0.97
2018-01-02T04:15:11.755Z,1.27
2018-01-02T04:17:40.175Z,1.00
2018-01-02T04:20:08.487Z,1.00
2018-01-02T04:22:36.755Z,0.70
2018-01-02T04:25:05.071Z,0.97
2018-01-02T04:27:33.396Z,1.00
2018-01-02T04:30:01.747Z,0.77
2018-01-02T04:32:30.077Z,0.80
2018-01-02T04:34:58.386Z,1.00
2018-01-02T04:37:29.378Z,1.10
2018-01-02T04:39:57.811Z,1.07
2018-01-02T04:42:26.455Z,0.90
2018-01-02T04:44:55.021Z,1.17
2018-01-02T04:47:23.383Z,1.07
2018-01-02T04:49:51.804Z,0.93
2018-01-02T04:52:20.178Z,0.80
2018-01-02T04:54:48.703Z,1.13
2018-01-02T04:57:17.022Z,0.60
2018-01-02T04:59:45.561Z,0.60
2018-01-02T05:02:15.348Z,0.97
2018-01-02T05:04:43.676Z,0.83
2018-01-02T05:07:26.495Z,0.77
2018-01-02T05:09:59.221Z,0.67
2018-01-02T05:12:27.548Z,0.90
2018-01-02T05:14:55.862Z,0.80
2018-01-02T05:17:24.282Z,0.90
2018-01-02T05:19:52.780Z,0.80
2018-01-02T05:22:21.175Z,1.10
2018-01-02T05:24:49.490Z,0.97
2018-01-02T05:27:17.853Z,0.90
2018-01-02T05:29:46.938Z,0.90
2018-01-02T05:32:15.246Z,1.03
2018-01-02T05:34:43.667Z,1.07
2018-01-02T05:37:12.106Z,0.70
2018-01-02T05:39:40.428Z,0.77
2018-01-02T05:42:08.904Z,0.57
2018-01-02T05:44:37.208Z,1.00
2018-01-02T05:47:19.884Z,0.87
2018-01-02T05:49:48.251Z,1.10
2018-01-02T05:52:16.554Z,1.00
2018-01-02T05:54:44.916Z,1.20
2018-01-02T05:57:13.409Z,0.87
2018-01-02T05:59:45.932Z,0.93
2018-01-02T06:02:15.098Z,0.73
2018-01-02T06:04:49.016Z,0.87
2018-01-02T06:07:22.420Z,0.83
2018-01-02T06:09:50.762Z,0.80
2018-01-02T06:12:19.206Z,0.67
2018-01-02T06:14:47.587Z,0.80
2018-01-02T06:17:15.921Z,1.33
2018-01-02T06:19:44.688Z,0.67
2018-01-02T06:22:13.019Z,0.70
2018-01-02T06:24:41.395Z,0.70
2018-01-02T06:27:09.755Z,0.60
2018-01-02T06:29:38.207Z,1.03
2018-01-02T06:32:06.572Z,1.30
2018-01-02T06:34:34.919Z,0.80
2018-01-02T06:37:03.356Z,0.70
2018-01-02T06:39:31.692Z,1.13
2018-01-02T06:42:00.111Z,0.90
2018-01-02T06:44:28.450Z,0.87
2018-01-02T06:46:56.871Z,1.70
2018-01-02T06:49:25.251Z,1.20
2018-01-02T06:51:53.616Z,0.93
2018-01-02T06:54:22.241Z,0.90
2018-01-02T06:56:50.678Z,0.80
2018-01-02T06:59:20.079Z,0.70
2018-01-02T07:01:48.756Z,1.00
2018-01-02T07:04:17.226Z,0.90
2018-01-02T07:06:57.285Z,0.90
2018-01-02T07:09:25.896Z,0.93
2018-01-02T07:11:54.251Z,0.80
2018-01-02T07:14:22.527Z,0.73
2018-01-02T07:16:52.260Z,0.80
2018-01-02T07:19:21.535Z,0.77
2018-01-02T07:21:51.412Z,0.43
2018-01-02T07:24:19.786Z,0.93
2018-01-02T07:27:13.564Z,0.70
2018-01-02T07:30:13.276Z,0.80
2018-01-02T07:32:42.996Z,1.03
2018-01-02T07:35:11.368Z,0.60
2018-01-02T07:37:39.651Z,0.83
2018-01-02T07:40:08.016Z,0.67
2018-01-02T07:42:39.045Z,0.60
2018-01-02T07:45:07.407Z,0.60
2018-01-02T07:47:38.471Z,0.70
2018-01-02T07:50:06.944Z,0.80
2018-01-02T07:52:36.298Z,0.90
2018-01-02T07:55:04.600Z,0.83
2018-01-02T07:57:32.950Z,0.80
2018-01-02T08:00:01.356Z,0.80
2018-01-02T08:02:29.786Z,0.80
2018-01-02T08:04:58.126Z,0.83
2018-01-02T08:07:26.435Z,0.67
2018-01-02T08:09:55.539Z,1.13
2018-01-02T08:12:23.998Z,1.03
2018-01-02T08:14:52.291Z,1.33
2018-01-02T08:23:28.378Z,0.80
2018-01-02T08:25:56.662Z,1.23
2018-01-02T08:28:24.966Z,0.80
2018-01-02T08:30:59.684Z,0.67
2018-01-02T08:39:48.477Z,0.70
2018-01-02T08:45:16.704Z,0.60
2018-01-02T08:47:45.112Z,0.80
2018-01-02T08:50:14.283Z,0.70
2018-01-02T08:58:40.645Z,0.60
2018-01-02T09:01:08.987Z,0.80
2018-01-02T09:03:37.363Z,0.70
2018-01-02T09:06:14.555Z,0.70
2018-01-02T09:12:03.200Z,0.70
2018-01-02T09:15:03.347Z,0.73
2018-01-02T09:17:32.425Z,0.73
2018-01-02T09:20:00.851Z,0.60
2018-01-02T09:22:29.318Z,0.80
2018-01-02T09:24:57.624Z,0.70
2018-01-02T09:27:25.981Z,0.70
2018-01-02T09:29:54.265Z,0.80
2018-01-02T09:32:22.560Z,0.73
2018-01-02T09:34:50.867Z,0.97
2018-01-02T09:37:20.335Z,0.87
2018-01-02T09:39:48.712Z,0.93
2018-01-02T09:42:18.011Z,1.20
2018-01-02T09:44:46.356Z,0.77
2018-01-02T09:50:14.906Z,1.30
2018-01-02T09:56:02.872Z,1.00
2018-01-02T09:58:31.627Z,1.17
2018-01-02T10:01:21.411Z,1.40
2018-01-02T10:03:55.843Z,1.57
2018-01-02T10:06:24.211Z,1.10
2018-01-02T10:09:10.397Z,1.10
2018-01-02T10:11:38.684Z,1.63
2018-01-02T10:14:07.016Z,1.50
2018-01-02T10:16:35.373Z,1.23
2018-01-02T10:19:03.819Z,1.87
2018-01-02T10:21:32.312Z,1.40
2018-01-02T10:24:00.728Z,1.50
2018-01-02T10:26:42.377Z,1.70
2018-01-02T10:29:23.586Z,1.70
2018-01-02T10:35:02.416Z,1.53
2018-01-02T10:37:47.965Z,1.63
2018-01-02T10:40:20.324Z,1.60
2018-01-02T10:46:09.452Z,1.60
2018-01-02T10:48:37.813Z,2.00
2018-01-02T10:51:06.146Z,1.30
2018-01-02T10:53:44.284Z,1.70
2018-01-02T10:56:12.715Z,1.20
2018-01-02T10:58:47.031Z,1.40
2018-01-02T11:01:51.025Z,1.50
2018-01-02T11:04:19.649Z,1.80
2018-01-02T11:06:49.579Z,1.20
2018-01-02T11:09:18.474Z,1.47
2018-01-02T11:11:53.527Z,1.73
2018-01-02T11:14:53.643Z,1.90
2018-01-02T11:17:22.844Z,2.10
2018-01-02T11:19:51.240Z,1.80
2018-01-02T11:25:29.154Z,1.27
2018-01-02T11:27:57.446Z,1.60
2018-01-02T11:30:26.601Z,1.67
2018-01-02T11:32:55.122Z,1.63
2018-01-02T11:35:23.567Z,1.57
2018-01-02T11:37:51.923Z,1.60
2018-01-02T11:40:20.298Z,1.70
2018-01-02T11:42:48.641Z,1.23
2018-01-02T11:48:27.276Z,1.50
2018-01-02T11:50:55.699Z,1.10
2018-01-02T11:53:47.655Z,1.20
2018-01-02T11:59:26.300Z,1.10
2018-01-02T12:01:54.890Z,1.00
2018-01-02T12:04:32.957Z,0.90
2018-01-02T12:10:10.861Z,0.93
2018-01-02T12:12:39.211Z,1.40
2018-01-02T12:18:17.186Z,0.90
2018-01-02T12:23:58.952Z,1.40
2018-01-02T12:26:34.215Z,0.87
2018-01-02T12:29:02.568Z,1.00
2018-01-02T12:31:30.915Z,0.87
2018-01-02T12:33:59.226Z,0.93
2018-01-02T12:36:27.571Z,0.53
2018-01-02T12:42:06.588Z,1.10
2018-01-02T12:44:34.875Z,1.00
2018-01-02T12:47:03.242Z,0.87
2018-01-02T12:49:31.550Z,0.87
2018-01-02T12:52:09.566Z,1.10
2018-01-02T12:54:37.905Z,1.20
2018-01-02T12:57:31.444Z,1.20
2018-01-02T12:59:59.852Z,1.77
2018-01-02T13:02:28.167Z,1.63
2018-01-02T13:04:56.509Z,1.40
2018-01-02T13:07:24.827Z,1.73
2018-01-02T13:09:53.109Z,1.30
2018-01-02T13:12:21.483Z,1.60
2018-01-02T13:14:49.843Z,1.10
2018-01-02T13:17:18.140Z,1.10
2018-01-02T13:19:46.594Z,0.90
2018-01-02T13:22:46.543Z,0.90
2018-01-02T13:25:15.099Z,1.03
2018-01-02T13:27:44.755Z,1.10
2018-01-02T13:32:58.786Z,0.73
2018-01-02T13:35:44.249Z,0.80
2018-01-02T13:38:12.643Z,0.90
2018-01-02T13:40:40.971Z,1.00
2018-01-02T13:43:34.592Z,0.60
2018-01-02T13:46:03.704Z,1.13
2018-01-02T13:48:35.407Z,0.90
2018-01-02T13:51:03.698Z,1.20
2018-01-02T13:53:37.815Z,0.90
2018-01-02T13:56:06.109Z,1.40
2018-01-02T13:58:34.472Z,0.93
2018-01-02T14:01:16.384Z,1.00
2018-01-02T14:03:45.694Z,1.27
2018-01-02T14:06:15.414Z,1.60
2018-01-02T14:11:53.173Z,1.27
2018-01-02T14:14:21.566Z,1.17
2018-01-02T14:16:49.891Z,1.17
2018-01-02T14:19:19.500Z,0.73
2018-01-02T14:22:13.896Z,0.93
2018-01-02T14:24:44.055Z,1.00
2018-01-02T14:27:12.435Z,1.13
2018-01-02T14:29:50.964Z,0.87
2018-01-02T14:32:19.445Z,1.10
2018-01-02T14:34:47.797Z,1.10
2018-01-02T14:37:16.134Z,0.80
2018-01-02T14:39:45.234Z,1.00
2018-01-02T14:42:13.611Z,1.13
2018-01-02T14:45:01.558Z,1.23
2018-01-02T14:47:29.866Z,1.00
2018-01-02T14:49:58.364Z,1.03
2018-01-02T14:52:26.718Z,1.50
2018-01-02T14:54:55.084Z,1.33
2018-01-02T14:57:28.739Z,1.17
2018-01-02T14:59:57.058Z,1.20
2018-01-02T15:02:25.463Z,1.20
2018-01-02T15:05:06.453Z,1.30
2018-01-02T15:07:50.108Z,1.23
2018-01-02T15:10:18.799Z,1.03
2018-01-02T15:15:44.720Z,1.20
2018-01-02T15:18:14.879Z,1.40
2018-01-02T15:20:43.252Z,1.50
2018-01-02T15:23:36.758Z,1.20
2018-01-02T15:26:07.041Z,1.10
2018-01-02T15:28:45.117Z,1.30
2018-01-02T15:37:09.447Z,1.10
2018-01-02T15:39:37.820Z,1.07
2018-01-02T15:42:06.244Z,1.10
2018-01-02T15:44:34.596Z,1.20
2018-01-02T15:50:03.105Z,2.73
2018-01-02T15:52:31.646Z,1.10
2018-01-02T15:54:59.965Z,1.20
2018-01-02T15:57:28.461Z,2.17
2018-01-02T15:59:57.848Z,1.80
2018-01-02T16:02:26.237Z,2.80
2018-01-02T16:04:54.553Z,2.90
2018-01-02T16:07:22.903Z,1.40
2018-01-02T16:09:51.281Z,1.53
2018-01-02T16:12:19.654Z,1.47
2018-01-02T16:14:48.045Z,1.57
2018-01-02T16:17:16.408Z,1.17
2018-01-02T16:19:52.491Z,1.27
2018-01-02T16:25:54.371Z,1.33
2018-01-02T16:28:22.739Z,1.70
2018-01-02T16:30:51.215Z,1.60
2018-01-02T16:33:19.556Z,2.20
2018-01-02T16:35:47.922Z,2.10
2018-01-02T16:38:16.296Z,1.80
2018-01-02T16:40:50.927Z,1.30
2018-01-02T16:43:29.380Z,2.00
2018-01-02T16:46:03.792Z,1.10
2018-01-02T16:48:32.163Z,1.10
2018-01-02T16:51:00.465Z,1.67
2018-01-02T16:53:28.760Z,1.60
2018-01-02T16:55:57.071Z,1.87
2018-01-02T16:58:27.014Z,2.03
2018-01-02T17:00:55.526Z,1.87
2018-01-02T17:03:23.941Z,2.47
2018-01-02T17:06:15.764Z,1.83
2018-01-02T17:08:44.132Z,1.83
2018-01-02T17:14:00.388Z,1.77
2018-01-02T17:16:28.744Z,1.63
2018-01-02T17:18:57.026Z,1.87
2018-01-02T17:21:44.056Z,1.50
2018-01-02T17:24:12.444Z,1.70
2018-01-02T17:26:41.701Z,1.97
2018-01-02T17:29:10.043Z,2.40
2018-01-02T17:31:38.353Z,1.60
2018-01-02T17:34:26.459Z,2.50
2018-01-02T17:36:54.780Z,1.90
2018-01-02T17:39:24.332Z,1.70
2018-01-02T17:41:52.634Z,1.87
2018-01-02T17:44:20.989Z,2.63
2018-01-02T17:46:49.389Z,1.80
2018-01-02T17:49:17.737Z,2.27
2018-01-02T17:51:46.057Z,1.60
2018-01-02T17:54:15.088Z,1.90
2018-01-02T17:56:44.280Z,1.43
2018-01-02T17:59:15.430Z,2.20
2018-01-02T18:01:45.219Z,1.67
2018-01-02T18:04:15.123Z,2.00
2018-01-02T18:06:43.740Z,2.13
2018-01-02T18:09:12.308Z,2.27
2018-01-02T18:11:40.679Z,2.57
2018-01-02T18:14:11.321Z,3.10
2018-01-02T18:16:39.683Z,2.07
2018-01-02T18:19:14.552Z,2.27
2018-01-02T18:21:46.887Z,1.80
2018-01-02T18:24:22.032Z,2.30
2018-01-02T18:26:58.753Z,2.37
2018-01-02T18:32:13.778Z,3.03
2018-01-02T18:34:45.702Z,3.30
2018-01-02T18:37:14.737Z,2.00
2018-01-02T18:39:43.396Z,1.80
2018-01-02T18:42:19.274Z,2.53
2018-01-02T18:44:47.574Z,3.00
2018-01-02T18:47:15.870Z,2.33
2018-01-02T18:49:44.321Z,3.53
2018-01-02T18:52:12.681Z,2.70
2018-01-02T18:54:40.990Z,2.53
2018-01-02T18:57:09.369Z,1.83
2018-01-02T18:59:37.739Z,2.03
2018-01-02T19:02:06.063Z,2.80
2018-01-02T19:04:34.355Z,2.40
2018-01-02T19:07:02.697Z,3.10
2018-01-02T19:09:30.980Z,1.90
2018-01-02T19:11:59.327Z,1.70
2018-01-02T19:14:27.646Z,3.37
2018-01-02T19:16:55.981Z,2.37
2018-01-02T19:19:24.258Z,1.80
2018-01-02T19:21:52.542Z,7.83
2018-01-02T19:24:21.617Z,3.13
2018-01-02T19:26:49.943Z,2.27
2018-01-02T19:29:18.679Z,2.33
2018-01-02T19:31:47.024Z,2.60
2018-01-02T19:34:16.381Z,2.37
2018-01-02T19:36:44.684Z,2.30
2018-01-02T19:39:15.061Z,2.70
2018-01-02T19:41:45.342Z,1.97
2018-01-02T19:44:13.716Z,2.47
2018-01-02T19:46:42.032Z,3.00
2018-01-02T19:49:10.351Z,2.30
2018-01-02T19:51:38.662Z,2.70
2018-01-02T19:54:06.962Z,2.50
2018-01-02T19:56:35.238Z,2.50
2018-01-02T19:59:03.640Z,2.83
2018-01-02T20:01:31.925Z,2.93
2018-01-02T20:04:00.999Z,2.57
2018-01-02T20:06:29.317Z,2.17
2018-01-02T20:08:58.407Z,2.43
2018-01-02T20:11:30.518Z,3.30
2018-01-02T20:13:59.592Z,2.60
2018-01-02T20:16:27.907Z,1.93
2018-01-02T20:18:56.186Z,3.20
2018-01-02T20:21:28.250Z,2.57
2018-01-02T20:23:57.301Z,3.13
2018-01-02T20:26:25.621Z,2.93
2018-01-02T20:28:53.919Z,3.00
2018-01-02T20:31:22.250Z,3.10
2018-01-02T20:33:50.582Z,2.33
2018-01-02T20:36:19.691Z,2.10
2018-01-02T20:38:48.055Z,2.20
2018-01-02T20:41:16.372Z,2.13
2018-01-02T20:46:26.683Z,1.80
2018-01-02T20:48:54.982Z,1.30
2018-01-02T20:51:23.436Z,1.50
2018-01-02T20:53:51.761Z,2.60
2018-01-02T20:56:20.514Z,1.70
2018-01-02T20:58:54.300Z,1.80
2018-01-02T21:01:22.638Z,1.77
2018-01-02T21:03:51.010Z,1.73
2018-01-02T21:06:43.419Z,1.77
2018-01-02T21:09:11.724Z,1.90
2018-01-02T21:11:40.851Z,2.80
2018-01-02T21:14:16.206Z,2.30
2018-01-02T21:16:51.694Z,2.00
2018-01-02T21:19:20.094Z,2.60
2018-01-02T21:21:48.621Z,1.83
2018-01-02T21:24:17.058Z,2.50
2018-01-02T21:26:45.812Z,1.90
2018-01-02T21:29:14.209Z,1.60
2018-01-02T21:31:42.781Z,4.30
2018-01-02T21:34:11.146Z,2.10
2018-01-02T21:36:47.969Z,3.67
2018-01-02T21:42:10.456Z,1.97
2018-01-02T21:44:44.125Z,2.50
2018-01-02T21:53:44.644Z,1.80
2018-01-02T21:56:13.064Z,2.00
2018-01-02T21:58:41.440Z,2.00
2018-01-02T22:01:09.945Z,2.03
2018-01-02T22:06:48.120Z,2.90
2018-01-02T22:09:27.146Z,2.30
2018-01-02T22:12:14.905Z,2.00
2018-01-02T22:14:43.826Z,1.90
2018-01-02T22:17:12.371Z,3.03
2018-01-02T22:26:00.816Z,2.20
2018-01-02T22:28:29.139Z,2.63
2018-01-02T22:30:57.860Z,2.40
2018-01-02T22:33:27.967Z,2.77
2018-01-02T22:35:56.494Z,1.67
2018-01-02T22:38:24.818Z,1.87
2018-01-02T22:40:53.117Z,1.97
2018-01-02T22:43:21.475Z,1.97
2018-01-02T22:45:57.040Z,1.60
2018-01-02T22:48:25.526Z,1.90
2018-01-02T22:50:53.909Z,1.20
2018-01-02T22:53:22.311Z,2.90
2018-01-02T22:55:50.609Z,1.60
2018-01-02T22:58:18.936Z,1.60
2018-01-02T23:00:47.304Z,1.87
2018-01-02T23:03:15.615Z,1.63
2018-01-02T23:05:44.765Z,2.80
2018-01-02T23:08:13.131Z,1.47
2018-01-02T23:10:41.419Z,1.93
2018-01-02T23:13:09.810Z,2.30
2018-01-02T23:15:38.168Z,2.33
2018-01-02T23:18:06.502Z,1.87
2018-01-02T23:20:34.787Z,1.67
2018-01-02T23:23:04.857Z,1.43
2018-01-02T23:25:33.249Z,2.10
2018-01-02T23:28:01.660Z,1.60
2018-01-02T23:30:29.954Z,2.10
2018-01-02T23:32:59.051Z,1.80
2018-01-02T23:35:27.470Z,1.60
2018-01-02T23:37:55.859Z,1.80
2018-01-02T23:40:24.264Z,1.97
2018-01-02T23:42:52.834Z,1.97
2018-01-02T23:45:21.144Z,2.03
2018-01-02T23:47:49.460Z,1.27
2018-01-02T23:53:00.726Z,2.67
2018-01-02T23:55:29.072Z,2.40
2018-01-02T23:57:57.366Z,1.70
